Blountstown, Florida
Current Conditions -  °F | °C
As of 6:53 PM on Monday 20 Oct 2014 (Local Time) from KMAI Reporting Station
Clear Clear  
Wind Chill: 22°   Ceiling: Unl
Heat Index: 22°   Visibility: 10mi
Dew Point: 16°   Wind: 6mph
Humidity: 70%   Direction: 350°N
Pressure: 29.97"   Gusts: NA
Location:  30.44°N, 85.05°W
Report Text: KMAI 202353Z AUTO 35005KT 10SM CLR 22/16 A2997 RMK AO2 SLP148 T02170161 10272 20217 53002 $
Loading
Personal Weather Stations






























Interactive Weather Map New forecast layout! Learn more

10-Day Weather Forecast

Advertisements
Track Severe Weather on mobile